Архив погоды в Красном Яре

Метеограмма Красный Яр
Среда, 15 Августа
Время местн. Темп Ветер Видим Явления Облачность нижн/средн/верх Атм. давл. Влжн Точка росы ВНГО R Сост. почвы Tg s
Напр Скр Прв ур.ст ур.м изм
04:00 +15.3° штиль 0 - 20 км - облачно с прояснениями 749 760 0 95% +14.5° 1 км - - - -
01:00 +16.7° С,С-В 2 - 20 км - переменная облачность 749 760 +0.3 88% +14.7° 1 км - - - -
Вторник, 14 Августа
Время местн. Темп Ветер Видим Явления Облачность нижн/средн/верх Атм. давл. Влжн Точка росы ВНГО R Сост. почвы Tg s
Напр Скр Прв ур.ст ур.м изм
22:00 +20° штиль 0 - 20 км - облачно 749 760 +1.2 98% +19.6° 1 км - - - -
19:00 +24.3° штиль 0 - более 50 км - облачно с прояснениями 747 758 +0.1 82% +21° 1 км 0 - - -
16:00 +27.6° З,С-З 1 - более 50 км - облачно с прояснениями 747 758 -0.6 49% +16° 1 км - - - -
13:00 +26.5° С-З 1 - более 50 км - облачно с прояснениями 748 759 -0.3 52% +15.7° 1 км - - - -
10:00 +20.9° С-В 1 - 50 км - облачно с прояснениями 748 759 +0.2 77% +16.7° более 2.5 км - - - -
07:00 +13.1° штиль 0 - более 50 км - облачно с прояснениями 748 759 +0.3 98% +12.8° более 2.5 км 0 Влажная (без луж) +14° -
04:00 +12.3° штиль 0 - 20 км - ясно 748 759 +0.5 99% +12.2° более 2.5 км - - - -
01:00 +14.1° штиль 0 - 20 км - ясно 747 759 +0.6 97% +13.6° более 2.5 км - - - -
Понедельник, 13 Августа
Время местн. Темп Ветер Видим Явления Облачность нижн/средн/верх Атм. давл. Влжн Точка росы ВНГО R Сост. почвы Tg s
Напр Скр Прв ур.ст ур.м изм
22:00 +17° штиль 0 - 20 км - переменная облачность 747 758 +1.2 95% +16.2° более 2.5 км - - - -
19:00 +25.9° штиль 0 - более 50 км - переменная облачность 746 756 -0.1 66% +19.1° 1 км 0 - - -
16:00 +27.7° Ю-З 1 - 50 км небо без изменений {туман} переменная облачность 746 757 -0.8 44% +14.4° 1 км - - - -
13:00 +24.8° З 1 - 50 км небо без изменений {туман} переменная облачность 746 758 -0.7 48% +12.9° 1 км - - - -
10:00 +16.9° В 1 - 200 м туман неба не видно 747 758 -0.3 92% +15.6° - - - - -
07:00 +12.7° штиль 0 - 0.2 км туман - 747 759 +0.4 99% +12.6° - 0 Влажная (без луж) - -
04:00 +12.1° штиль 0 - 0.2 км туман усиливается - 747 759 +0.1 99% +12° - - - - -
01:00 +13.5° штиль 0 - 20 км - ясно 747 758 +0.8 99% +13.4° более 2.5 км - - - -
Воскресенье, 12 Августа
Время местн. Темп Ветер Видим Явления Облачность нижн/средн/верх Атм. давл. Влжн Точка росы ВНГО R Сост. почвы Tg s
Напр Скр Прв ур.ст ур.м изм
22:00 +16.6° штиль 0 - 20 км - ясно 746 758 +1.1 95% +15.8° более 2.5 км - - - -
19:00 +24.5° З,С-З 1 - 50 км - переменная облачность 745 756 0 64% +17.2° 1 км 0 - - -
16:00 +26.6° З 1 - более 50 км - переменная облачность 745 756 -0.7 52% +16° 1 км - - - -
13:00 +25.9° З 2 - более 50 км - переменная облачность 746 757 +0.2 56% +16.4° 1 км - - - -
10:00 +22.4° З,С-З 1 - более 50 км - переменная облачность 746 757 -0.2 79% +18.6° 1 км - - - -
07:00 +17.1° штиль 0 - 20 км - ясно 746 757 +0.8 94% +16.2° более 2.5 км 0 Влажная (без луж) - -
04:00 +15.3° штиль 0 - 20 км - ясно 745 756 +0.3 93% +14.1° более 2.5 км - - - -
01:00 +17.3° штиль 0 - 20 км - ясно 745 756 +0.5 97% +16.8° более 2.5 км - - - -